Terminal Aerodrome Forecast
Issued by NWS

Home | Current Version | Previous Version | Text Only | Print | Product List | Glossary On
Versions: 1 2 3 4 5 6 7 8 9 10 11 12 13 14 15 16 17
611
FTUS43 KMQT 292330
TAFSAW
TAF
KSAW 292330Z 3000/3024 02008KT P6SM BKN200
     FM301600 05009KT P6SM VCSH BKN090
     FM301700 04011G18KT P6SM OVC070
     FM302000 04010KT P6SM OVC045
     FM302200 05009KT 6SM -SHRA OVC030=

USA.gov is the U.S. government's official web portal to all federal, state and local government web resources and services.